Time;durP1;ratioP1;P1;durP2;ratioP2;P2;SDS_P1;SDS_P2;PMS_P1;PMS_P2;Temp;Humidity;BMP_temperature;BMP_pressure;BME280_temperature;BME280_humidity;BME280_pressure;Samples;Min_cycle;Max_cycle;Signal;HPM_P1;HPM_P2
2022/06/25 00:01:09;;;;;;;1.27;0.93;;;25.90;57.90;;;;;;5094545;28;20085;-48
2022/06/25 00:03:35;;;;;;;1.55;0.90;;;27.30;58.90;;;;;;5095094;28;20028;-49
2022/06/25 00:06:01;;;;;;;1.05;0.88;;;;;;;;;;5095301;28;20451;-48
2022/06/25 00:08:26;;;;;;;1.02;0.93;;;23.80;56.70;;;;;;5094784;28;20093;-49
2022/06/25 00:10:52;;;;;;;2.50;1.00;;;;;;;;;;5094963;28;20036;-50
2022/06/25 00:13:19;;;;;;;2.55;0.85;;;;;;;;;;5094853;28;20103;-49
2022/06/25 00:15:45;;;;;;;1.60;1.00;;;26.00;67.80;;;;;;5094876;28;20024;-48
2022/06/25 00:18:11;;;;;;;0.88;0.88;;;;;;;;;;5094838;28;20099;-49
2022/06/25 00:20:37;;;;;;;1.00;0.90;;;25.40;67.40;;;;;;5094609;28;20035;-48
2022/06/25 00:23:03;;;;;;;0.88;0.88;;;26.10;75.60;;;;;;5094692;28;20020;-49
2022/06/25 00:25:29;;;;;;;0.95;0.95;;;26.20;67.60;;;;;;5094784;28;20398;-48
2022/06/25 00:27:55;;;;;;;1.58;1.00;;;;;;;;;;5094535;28;20021;-48
2022/06/25 00:30:20;;;;;;;1.83;0.88;;;26.10;80.80;;;;;;5094386;28;20047;-49
2022/06/25 00:32:46;;;;;;;2.83;0.70;;;;;;;;;;5094498;28;20036;-49
2022/06/25 00:35:12;;;;;;;1.20;0.77;;;;;;;;;;5094496;28;20115;-47
2022/06/25 00:37:39;;;;;;;2.08;1.08;;;;;;;;;;5094434;28;20075;-49
2022/06/25 00:40:05;;;;;;;1.10;0.90;;;25.70;64.20;;;;;;5094345;28;20152;-48
2022/06/25 00:42:31;;;;;;;0.98;0.90;;;25.70;89.50;;;;;;5094218;28;20066;-48
2022/06/25 00:44:56;;;;;;;1.05;0.90;;;25.80;66.50;;;;;;5094268;28;20032;-48
2022/06/25 00:47:23;;;;;;;1.10;0.73;;;;;;;;;;5094233;28;20127;-48
2022/06/25 00:49:49;;;;;;;1.70;1.17;;;24.90;58.40;;;;;;5094060;28;20035;-49
2022/06/25 00:52:19;;;;;;;1.23;0.80;;;26.00;76.70;;;;;;5094088;28;20028;-49
2022/06/25 00:54:49;;;;;;;;;;;25.80;58.20;;;;;;5094587;28;20054;-49
2022/06/25 00:57:19;;;;;;;0.93;0.88;;;26.10;57.80;;;;;;5094078;28;19911;-48
2022/06/25 00:59:50;;;;;;;1.27;0.90;;;25.70;57.50;;;;;;5093926;28;20495;-50
2022/06/25 01:02:16;;;;;;;0.63;0.63;;;26.00;89.70;;;;;;5093910;28;20114;-49
2022/06/25 01:04:41;;;;;;;0.80;0.80;;;26.00;69.00;;;;;;5093853;28;20107;-49
2022/06/25 01:07:08;;;;;;;2.00;1.23;;;25.80;89.40;;;;;;5093863;28;20055;-49
2022/06/25 01:09:34;;;;;;;1.17;1.08;;;;;;;;;;5093636;28;20071;-49
2022/06/25 01:12:00;;;;;;;1.23;0.70;;;25.70;80.00;;;;;;5074881;28;20031;-50
2022/06/25 01:14:26;;;;;;;0.98;0.85;;;25.40;89.30;;;;;;5093679;28;20016;-49
2022/06/25 01:16:51;;;;;;;1.20;0.65;;;25.80;90.00;;;;;;5093622;28;20084;-48
2022/06/25 01:19:17;;;;;;;1.15;0.82;;;25.90;90.20;;;;;;5093590;28;20020;-48
2022/06/25 01:21:44;;;;;;;1.55;0.70;;;25.80;83.30;;;;;;5093573;28;20028;-48
2022/06/25 01:24:11;;;;;;;1.27;1.17;;;26.00;90.00;;;;;;5093476;28;20084;-49
2022/06/25 01:26:41;;;;;;;0.82;0.80;;;25.80;90.10;;;;;;5093418;28;20086;-49
2022/06/25 01:29:08;;;;;;;1.55;1.15;;;25.70;89.80;;;;;;5093683;28;20036;-48
2022/06/25 01:31:37;;;;;;;0.80;0.80;;;25.70;89.90;;;;;;5093476;28;20046;-48
2022/06/25 01:34:04;;;;;;;0.85;0.70;;;25.90;88.20;;;;;;5093301;28;20024;-50
2022/06/25 01:36:29;;;;;;;2.03;0.70;;;25.30;89.60;;;;;;5093236;28;20030;-50
2022/06/25 01:38:55;;;;;;;0.80;0.80;;;25.80;89.60;;;;;;5093184;28;20028;-48
2022/06/25 01:41:21;;;;;;;0.70;0.70;;;26.00;79.60;;;;;;5093157;28;20024;-49
2022/06/25 01:43:47;;;;;;;1.27;0.95;;;25.70;57.20;;;;;;5093128;28;20040;-49
2022/06/25 01:46:13;;;;;;;1.27;0.68;;;25.70;57.20;;;;;;5093099;28;20031;-48
2022/06/25 01:48:39;;;;;;;0.98;0.85;;;25.60;71.10;;;;;;5093111;28;20032;-48
2022/06/25 01:51:05;;;;;;;0.98;0.68;;;;;;;;;;5093127;28;20092;-48
2022/06/25 01:53:31;;;;;;;1.13;0.73;;;;;;;;;;5092980;28;20028;-48
2022/06/25 01:55:57;;;;;;;0.90;0.70;;;25.40;62.00;;;;;;5092910;28;20039;-49
2022/06/25 01:58:22;;;;;;;1.02;0.60;;;25.30;67.00;;;;;;5092955;28;20031;-48
2022/06/25 02:00:49;;;;;;;1.58;1.02;;;;;;;;;;5093051;28;20031;-48
2022/06/25 02:03:15;;;;;;;0.70;0.60;;;25.70;57.20;;;;;;5092794;28;20493;-49
2022/06/25 02:05:59;;;;;;;0.90;0.88;;;25.60;57.10;;;;;;5093040;28;20051;-48
2022/06/25 02:08:30;;;;;;;0.85;0.85;;;25.70;88.70;;;;;;5092546;28;20754;-48
2022/06/25 02:10:57;;;;;;;0.65;0.60;;;25.90;57.40;;;;;;5092712;28;20058;-48
2022/06/25 02:13:23;;;;;;;1.00;0.60;;;25.90;73.40;;;;;;5092617;28;20020;-49
2022/06/25 02:15:49;;;;;;;0.77;0.75;;;25.50;72.10;;;;;;5092563;28;20032;-49
2022/06/25 02:18:15;;;;;;;0.82;0.82;;;25.80;78.40;;;;;;5092631;28;20020;-49
2022/06/25 02:20:42;;;;;;;1.65;0.98;;;25.60;57.10;;;;;;5092536;28;20532;-49
2022/06/25 02:23:09;;;;;;;1.35;0.95;;;25.70;88.80;;;;;;5092486;28;20058;-48
2022/06/25 02:25:35;;;;;;;0.73;0.70;;;;;;;;;;5092494;28;20056;-48
2022/06/25 02:28:01;;;;;;;1.05;0.98;;;25.20;57.20;;;;;;5092573;28;20066;-49
2022/06/25 02:30:27;;;;;;;2.05;0.80;;;;;;;;;;5092304;28;20508;-50
2022/06/25 02:32:53;;;;;;;0.75;0.55;;;;;;;;;;5092284;28;20386;-52
2022/06/25 02:35:19;;;;;;;0.93;0.70;;;25.90;78.70;;;;;;5092274;28;20034;-51
2022/06/25 02:37:45;;;;;;;0.80;0.80;;;;;;;;;;5092279;28;20390;-52
2022/06/25 02:40:11;;;;;;;1.20;0.90;;;;;;;;;;5092187;28;20024;-47
2022/06/25 02:42:39;;;;;;;1.02;0.80;;;25.40;67.40;;;;;;5092184;28;20024;-48
2022/06/25 02:45:05;;;;;;;1.83;0.70;;;25.60;57.00;;;;;;5092182;28;20020;-49
2022/06/25 02:47:32;;;;;;;1.10;0.82;;;25.30;84.90;;;;;;5092000;28;20020;-48
2022/06/25 02:49:57;;;;;;;1.77;0.80;;;25.40;88.20;;;;;;5092103;28;20050;-48
2022/06/25 02:52:23;;;;;;;1.77;0.82;;;25.40;70.00;;;;;;5092117;28;20032;-48
2022/06/25 02:54:49;;;;;;;0.90;0.70;;;;;;;;;;5092124;28;20026;-48
2022/06/25 03:00:00;;;;;;;1.60;1.13;;;;;;;;;;5092303;28;20043;-50
2022/06/25 03:02:26;;;;;;;1.10;0.70;;;;;;;;;;5092052;28;20439;-48
2022/06/25 03:04:52;;;;;;;1.63;0.98;;;25.50;88.40;;;;;;5092030;28;20024;-49
2022/06/25 03:07:17;;;;;;;0.90;0.73;;;25.60;88.40;;;;;;5091943;28;20051;-48
2022/06/25 03:09:43;;;;;;;1.55;0.90;;;25.30;88.40;;;;;;5092100;28;20123;-49
2022/06/25 03:12:09;;;;;;;1.08;0.60;;;25.30;88.40;;;;;;5091933;28;20028;-49
2022/06/25 03:14:35;;;;;;;1.35;1.00;;;;;;;;;;5091929;28;20449;-49
2022/06/25 03:17:01;;;;;;;1.00;0.80;;;;;;;;;;5091926;28;20024;-49
2022/06/25 03:19:27;;;;;;;0.50;0.50;;;;;;;;;;5091880;28;20028;-49
2022/06/25 03:21:53;;;;;;;0.75;0.70;;;;;;;;;;5092052;28;20036;-48
2022/06/25 03:24:19;;;;;;;0.90;0.80;;;;;;;;;;5091813;28;20047;-50
2022/06/25 03:26:45;;;;;;;0.60;0.60;;;;;;;;;;5091838;28;20059;-49
2022/06/25 03:29:11;;;;;;;2.30;0.90;;;;;;;;;;5091677;28;20115;-49
2022/06/25 03:31:37;;;;;;;2.17;1.00;;;25.90;57.20;;;;;;5091731;28;20493;-50
2022/06/25 03:34:03;;;;;;;1.00;0.90;;;25.40;85.50;;;;;;5091760;28;20032;-49
2022/06/25 03:36:29;;;;;;;1.00;0.70;;;;;;;;;;5095462;28;20016;-51
2022/06/25 03:38:55;;;;;;;2.45;0.95;;;;;;;;;;5095609;28;20039;-49
2022/06/25 03:41:33;;;;;;;0.70;0.70;;;;;;;;;;5095437;28;20038;-49
2022/06/25 03:44:07;;;;;;;1.88;1.00;;;25.40;56.70;;;;;;5095473;28;20028;-49
2022/06/25 03:46:34;;;;;;;0.95;0.57;;;25.30;66.20;;;;;;5095464;28;20024;-49
2022/06/25 03:49:01;;;;;;;1.95;0.95;;;25.40;56.80;;;;;;5095260;28;20500;-49
2022/06/25 03:51:27;;;;;;;1.05;0.80;;;25.40;56.80;;;;;;5095310;28;20198;-48
2022/06/25 03:53:53;;;;;;;1.13;0.90;;;25.30;87.50;;;;;;5095309;28;20028;-48
2022/06/25 03:56:19;;;;;;;2.08;0.80;;;24.90;86.00;;;;;;5095435;28;20016;-48
2022/06/25 03:58:46;;;;;;;1.10;0.82;;;25.50;88.00;;;;;;5095391;28;20024;-49
2022/06/25 04:01:12;;;;;;;0.60;0.60;;;25.70;88.30;;;;;;5095132;28;20063;-48
2022/06/25 04:03:39;;;;;;;1.63;0.80;;;25.50;88.60;;;;;;5095327;28;20089;-48
2022/06/25 04:06:05;;;;;;;1.38;0.70;;;;;;;;;;5095092;28;20471;-48
2022/06/25 04:08:31;;;;;;;1.27;0.90;;;;;;;;;;5094761;28;20048;-48
2022/06/25 04:10:57;;;;;;;2.22;0.95;;;25.30;70.60;;;;;;5094972;28;20028;-49
2022/06/25 04:13:23;;;;;;;1.58;0.82;;;;;;;;;;5094884;28;20432;-49
2022/06/25 04:15:49;;;;;;;1.25;0.80;;;;;;;;;;5094948;28;20062;-49
2022/06/25 04:18:15;;;;;;;3.33;0.70;;;;;;;;;;5095044;28;20021;-48
2022/06/25 04:20:40;;;;;;;1.08;0.80;;;25.10;60.90;;;;;;5094742;28;20032;-48
2022/06/25 04:23:06;;;;;;;1.00;0.70;;;25.30;88.30;;;;;;5094672;28;20028;-49
2022/06/25 04:25:32;;;;;;;0.93;0.70;;;25.50;70.40;;;;;;5094894;28;20027;-49
2022/06/25 04:30:42;;;;;;;2.30;0.93;;;;;;;;;;5094603;28;20530;-48
2022/06/25 04:33:09;;;;;;;1.17;0.88;;;;;;;;;;5094507;28;20036;-48
2022/06/25 04:35:35;;;;;;;0.73;0.73;;;;;;;;;;5094486;28;20035;-48
2022/06/25 04:38:01;;;;;;;3.22;1.08;;;;;;;;;;5094423;28;20376;-49
2022/06/25 04:40:29;;;;;;;0.90;0.70;;;;;;;;;;5094375;28;20173;-49
2022/06/25 04:42:55;;;;;;;1.42;0.80;;;;;;;;;;5094586;28;20032;-48
2022/06/25 04:45:21;;;;;;;2.85;0.80;;;;;;;;;;5094248;28;20106;-48
2022/06/25 04:47:47;;;;;;;0.90;0.73;;;;;;;;;;5093245;28;20028;-49
2022/06/25 04:50:13;;;;;;;1.02;0.80;;;;;;;;;;5094418;28;20042;-48
2022/06/25 04:52:39;;;;;;;0.90;0.80;;;25.50;62.20;;;;;;5094158;28;20104;-48
2022/06/25 04:55:05;;;;;;;0.88;0.80;;;25.30;56.60;;;;;;5094114;28;20064;-48
2022/06/25 04:57:31;;;;;;;1.08;0.70;;;25.40;69.10;;;;;;5094266;28;20379;-48
2022/06/25 04:59:57;;;;;;;1.27;0.80;;;;;;;;;;5093946;28;20032;-48
2022/06/25 05:02:23;;;;;;;1.55;0.80;;;;;;;;;;5093863;28;20471;-49
2022/06/25 05:04:49;;;;;;;0.98;0.80;;;;;;;;;;5093757;28;20039;-48
2022/06/25 05:07:15;;;;;;;1.02;0.90;;;;;;;;;;5093748;28;20036;-49
2022/06/25 05:09:41;;;;;;;1.08;0.70;;;;;;;;;;5093512;28;20123;-49
2022/06/25 05:12:07;;;;;;;1.65;0.70;;;24.90;60.10;;;;;;5094029;28;20451;-48
2022/06/25 05:14:33;;;;;;;1.77;0.73;;;25.60;59.70;;;;;;5093684;28;20055;-48
2022/06/25 05:16:59;;;;;;;1.92;1.00;;;;;;;;;;5093968;28;20016;-48
2022/06/25 05:19:25;;;;;;;1.35;0.90;;;;;;;;;;5093566;28;20575;-48
2022/06/25 05:21:51;;;;;;;1.50;0.80;;;;;;;;;;5093557;28;20034;-47
2022/06/25 05:24:17;;;;;;;0.93;0.70;;;;;;;;;;5093517;28;20093;-48
2022/06/25 05:26:43;;;;;;;0.85;0.75;;;;;;;;;;5093417;28;20030;-49
2022/06/25 05:29:09;;;;;;;1.20;0.70;;;;;;;;;;5093501;28;20032;-47
2022/06/25 05:31:35;;;;;;;1.20;0.90;;;;;;;;;;5093370;28;20024;-48
2022/06/25 05:34:01;;;;;;;0.70;0.70;;;;;;;;;;5093322;28;20024;-48
2022/06/25 05:36:27;;;;;;;5.53;0.82;;;;;;;;;;5093247;28;20035;-48
2022/06/25 05:38:53;;;;;;;1.08;0.73;;;;;;;;;;5093160;28;20024;-48
2022/06/25 05:41:19;;;;;;;1.20;0.70;;;;;;;;;;5093425;28;20016;-48
2022/06/25 05:43:45;;;;;;;1.65;0.90;;;;;;;;;;5093035;28;20530;-48
2022/06/25 05:46:11;;;;;;;1.33;0.75;;;25.60;68.50;;;;;;5093069;28;20386;-47
2022/06/25 05:48:37;;;;;;;1.15;0.80;;;;;;;;;;5093078;28;20039;-48
2022/06/25 05:51:03;;;;;;;1.10;0.82;;;;;;;;;;5092979;28;20048;-49
2022/06/25 05:53:29;;;;;;;0.80;0.65;;;;;;;;;;5092936;28;20032;-48
2022/06/25 05:55:55;;;;;;;0.73;0.73;;;;;;;;;;5092885;28;20118;-49
2022/06/25 05:58:22;;;;;;;1.00;0.63;;;;;;;;;;5092506;28;20028;-49
2022/06/25 06:00:48;;;;;;;0.98;0.75;;;;;;;;;;5092767;28;20020;-49
2022/06/25 06:03:13;;;;;;;0.73;0.73;;;25.60;83.90;;;;;;5092821;28;20390;-47
2022/06/25 06:05:39;;;;;;;1.35;0.77;;;25.40;63.80;;;;;;5092724;28;20029;-48
2022/06/25 06:08:08;;;;;;;3.08;0.90;;;25.30;81.40;;;;;;5092608;28;20043;-48
2022/06/25 06:10:34;;;;;;;1.08;0.98;;;25.50;89.60;;;;;;5092688;28;20146;-49
2022/06/25 06:13:00;;;;;;;0.90;0.75;;;25.30;89.20;;;;;;5092580;28;20046;-49
2022/06/25 06:15:26;;;;;;;2.30;0.80;;;25.70;89.40;;;;;;5092846;28;20028;-48
2022/06/25 06:17:51;;;;;;;1.17;0.95;;;25.70;89.20;;;;;;5092494;28;20028;-49
2022/06/25 06:20:17;;;;;;;1.17;0.90;;;25.20;89.30;;;;;;5092561;28;20020;-48
2022/06/25 06:22:43;;;;;;;1.77;0.90;;;;;;;;;;5092419;28;20490;-48
2022/06/25 06:25:09;;;;;;;1.98;0.98;;;25.70;74.20;;;;;;5092461;28;20035;-48
2022/06/25 06:27:35;;;;;;;2.53;0.82;;;;;;;;;;5092432;28;20073;-49
2022/06/25 06:30:01;;;;;;;2.25;0.98;;;;;;;;;;5092238;28;20522;-49
2022/06/25 06:32:27;;;;;;;0.90;0.80;;;25.60;71.40;;;;;;5092288;28;20032;-48
2022/06/25 06:34:53;;;;;;;1.10;0.63;;;;;;;;;;5092266;28;20164;-49
2022/06/25 06:37:18;;;;;;;1.25;0.77;;;25.40;88.00;;;;;;5092280;28;20640;-49
2022/06/25 06:39:44;;;;;;;1.40;0.93;;;25.30;88.00;;;;;;5092265;28;20035;-50
2022/06/25 06:42:09;;;;;;;1.35;0.80;;;25.50;88.70;;;;;;5092437;28;20044;-49
2022/06/25 06:44:35;;;;;;;3.15;0.90;;;25.60;88.70;;;;;;5092262;28;20035;-49
2022/06/25 06:47:01;;;;;;;2.20;1.08;;;25.60;70.20;;;;;;5092155;28;20129;-48
2022/06/25 06:49:27;;;;;;;1.55;0.90;;;;;;;;;;5092055;28;20051;-48
2022/06/25 06:51:53;;;;;;;1.83;0.90;;;;;;;;;;5092058;28;20107;-48
2022/06/25 06:54:19;;;;;;;3.67;0.73;;;;;;;;;;5091703;28;20066;-49
2022/06/25 06:56:45;;;;;;;1.30;0.80;;;;;;;;;;5091815;28;20020;-50
2022/06/25 06:59:11;;;;;;;3.03;0.95;;;;;;;;;;5091840;28;20036;-47
2022/06/25 07:01:37;;;;;;;1.80;1.17;;;;;;;;;;5091748;28;20459;-48
2022/06/25 07:04:03;;;;;;;1.35;1.05;;;;;;;;;;5091991;28;20044;-47
2022/06/25 07:06:29;;;;;;;2.58;1.02;;;25.50;56.10;;;;;;5091838;28;20043;-45
2022/06/25 07:08:55;;;;;;;1.75;0.75;;;;;;;;;;5091651;28;20056;-47
2022/06/25 07:11:30;;;;;;;2.35;1.27;;;;;;;;;;5095569;28;20027;-47
2022/06/25 07:14:00;;;;;;;1.48;1.10;;;25.10;59.90;;;;;;5095912;28;20073;-49
2022/06/25 07:16:27;;;;;;;1.42;1.02;;;25.40;56.10;;;;;;5095818;28;20035;-48
2022/06/25 07:18:56;;;;;;;1.83;1.17;;;25.10;86.50;;;;;;5095788;28;20028;-49
2022/06/25 07:21:23;;;;;;;2.92;1.20;;;;;;;;;;5095844;28;20031;-48
2022/06/25 07:23:49;;;;;;;4.35;1.52;;;;;;;;;;5095688;28;20024;-49
2022/06/25 07:26:15;;;;;;;3.53;1.30;;;25.30;56.50;;;;;;5095597;28;20099;-47
2022/06/25 07:28:41;;;;;;;2.40;1.35;;;25.40;56.30;;;;;;5095506;28;20435;-47
2022/06/25 07:31:07;;;;;;;1.45;1.10;;;;;;;;;;5095562;28;20032;-47
2022/06/25 07:33:34;;;;;;;2.22;1.30;;;;;;;;;;5095394;28;20030;-48
2022/06/25 07:36:00;;;;;;;3.53;1.23;;;25.30;89.40;;;;;;5095534;28;20024;-49
2022/06/25 07:38:25;;;;;;;1.92;1.17;;;25.00;89.10;;;;;;5095706;28;20035;-47
2022/06/25 07:40:51;;;;;;;3.53;1.50;;;25.50;89.10;;;;;;5077419;28;20024;-49
2022/06/25 07:43:17;;;;;;;3.47;1.48;;;25.60;70.60;;;;;;5095653;28;20040;-49
2022/06/25 07:45:43;;;;;;;3.28;1.50;;;25.60;61.30;;;;;;5095349;28;20032;-48
2022/06/25 07:48:09;;;;;;;2.63;1.50;;;;;;;;;;5095374;28;20044;-48
2022/06/25 07:53:19;;;;;;;2.08;1.40;;;25.30;89.60;;;;;;5095226;28;20071;-49
2022/06/25 07:55:45;;;;;;;4.65;1.70;;;25.40;89.30;;;;;;5095246;28;20056;-50
2022/06/25 07:58:12;;;;;;;4.07;2.20;;;25.60;68.80;;;;;;5095369;28;20024;-48
2022/06/25 08:00:38;;;;;;;5.07;2.17;;;;;;;;;;5095454;28;20103;-51
2022/06/25 08:03:03;;;;;;;5.22;2.00;;;25.60;90.60;;;;;;5095487;28;20382;-50
2022/06/25 08:05:29;;;;;;;5.13;1.90;;;25.50;90.70;;;;;;5095199;28;20495;-48
2022/06/25 08:07:55;;;;;;;5.55;2.38;;;25.10;90.20;;;;;;5095000;28;20028;-47
2022/06/25 08:10:21;;;;;;;6.82;2.22;;;;;;;;;;5095035;28;20035;-47
2022/06/25 08:12:47;;;;;;;6.70;2.72;;;25.50;91.20;;;;;;5095101;28;20390;-48
2022/06/25 08:15:14;;;;;;;5.22;2.38;;;25.30;87.70;;;;;;5095129;28;20028;-47
2022/06/25 08:17:39;;;;;;;8.48;2.97;;;25.30;91.60;;;;;;5094966;28;20603;-48
2022/06/25 08:20:06;;;;;;;5.38;2.55;;;25.60;91.70;;;;;;5094638;28;20110;-50
2022/06/25 08:22:31;;;;;;;4.43;2.40;;;25.90;91.60;;;;;;5094867;28;20020;-49
2022/06/25 08:24:57;;;;;;;7.15;2.55;;;25.50;91.30;;;;;;5094753;28;20062;-48
2022/06/25 08:27:23;;;;;;;4.65;2.90;;;25.70;61.00;;;;;;5094754;28;20486;-48
2022/06/25 08:29:49;;;;;;;7.50;2.92;;;;;;;;;;5094691;28;20043;-48
2022/06/25 08:32:15;;;;;;;7.07;2.80;;;;;;;;;;5094842;28;20390;-49
2022/06/25 08:34:41;;;;;;;5.07;2.67;;;;;;;;;;5094665;28;20039;-48
2022/06/25 08:37:07;;;;;;;8.93;3.20;;;;;;;;;;5094424;28;20055;-49
2022/06/25 08:39:33;;;;;;;8.13;2.70;;;25.60;71.40;;;;;;5094328;28;20039;-48
2022/06/25 08:42:03;;;;;;;5.45;2.75;;;25.90;77.50;;;;;;5094516;28;20012;-51
2022/06/25 08:44:30;;;;;;;5.40;2.72;;;25.70;61.20;;;;;;5094085;28;20028;-48
2022/06/25 08:46:58;;;;;;;6.43;3.08;;;25.80;61.30;;;;;;5094185;28;20428;-49
2022/06/25 08:49:24;;;;;;;6.25;3.15;;;;;;;;;;5094008;28;20111;-48
2022/06/25 08:51:57;;;;;;;5.72;2.95;;;25.60;91.80;;;;;;5094236;28;20032;-48
2022/06/25 08:54:24;;;;;;;6.68;3.13;;;25.60;72.40;;;;;;5094288;28;20028;-49
2022/06/25 08:56:50;;;;;;;5.70;2.60;;;25.50;91.90;;;;;;5094103;28;20028;-49
2022/06/25 08:59:16;;;;;;;7.13;2.95;;;25.60;91.80;;;;;;5094400;28;20166;-49
2022/06/25 09:01:42;;;;;;;5.70;2.55;;;26.10;91.80;;;;;;5094154;28;20024;-49
2022/06/25 09:04:07;;;;;;;6.55;2.72;;;25.70;91.90;;;;;;5094109;28;20024;-47
2022/06/25 09:06:33;;;;;;;7.85;2.97;;;25.50;78.90;;;;;;5093971;28;20020;-48
2022/06/25 09:09:13;;;;;;;7.35;2.75;;;25.50;65.80;;;;;;5093742;28;20097;-49
2022/06/25 09:12:04;;;;;;;5.45;2.72;;;25.80;62.60;;;;;;5093934;28;20517;-48
2022/06/25 09:14:31;;;;;;;9.50;2.72;;;25.90;92.60;;;;;;5094157;28;20050;-48
2022/06/25 09:16:59;;;;;;;6.13;2.60;;;25.90;63.40;;;;;;5093793;28;20039;-50
2022/06/25 09:19:32;;;;;;;5.15;2.45;;;25.90;62.80;;;;;;5093745;28;20027;-49
2022/06/25 09:21:59;;;;;;;9.85;3.10;;;26.20;92.40;;;;;;5094016;28;20476;-48
2022/06/25 09:24:43;;;;;;;8.15;3.03;;;26.00;83.20;;;;;;5093774;28;20391;-49
2022/06/25 09:27:09;;;;;;;9.05;3.17;;;26.30;85.60;;;;;;5093716;28;20103;-48
2022/06/25 09:29:37;;;;;;;13.45;3.92;;;26.40;67.90;;;;;;5093654;28;20509;-50
2022/06/25 09:32:02;;;;;;;5.90;2.55;;;26.10;92.10;;;;;;5093307;28;20016;-48
2022/06/25 09:34:34;;;;;;;7.55;3.05;;;25.70;91.80;;;;;;5093571;28;20720;-49
2022/06/25 09:37:32;;;;;;;6.70;2.60;;;26.10;91.90;;;;;;5093831;28;20020;-48
2022/06/25 09:39:58;;;;;;;9.20;2.67;;;25.60;91.60;;;;;;5093525;28;20032;-48
2022/06/25 09:42:27;;;;;;;8.18;2.72;;;26.00;91.70;;;;;;5093463;28;20031;-49
2022/06/25 09:45:06;;;;;;;8.13;2.58;;;26.10;92.00;;;;;;5093385;28;20095;-49
2022/06/25 09:47:40;;;;;;;6.88;2.83;;;26.20;62.20;;;;;;5093420;28;20025;-49
2022/06/25 09:50:19;;;;;;;4.55;2.63;;;25.70;92.00;;;;;;5093329;28;20166;-49
2022/06/25 09:53:01;;;;;;;3.10;2.05;;;26.00;90.40;;;;;;5093191;28;20435;-49
2022/06/25 09:55:37;;;;;;;7.82;2.38;;;26.20;62.60;;;;;;5093105;28;20111;-48
2022/06/25 09:58:03;;;;;;;4.10;2.30;;;26.30;63.00;;;;;;5093314;28;20024;-47
2022/06/25 10:00:30;;;;;;;4.88;1.92;;;26.10;82.80;;;;;;5093022;28;20468;-50
2022/06/25 10:02:57;;;;;;;5.78;2.22;;;25.80;92.40;;;;;;5092796;28;20557;-49
2022/06/25 10:05:29;;;;;;;6.85;2.10;;;26.20;62.70;;;;;;5092980;28;20059;-50
2022/06/25 10:08:01;;;;;;;8.15;2.42;;;26.90;65.60;;;;;;5092767;28;20112;-49
2022/06/25 10:10:38;;;;;;;4.47;2.13;;;26.00;92.10;;;;;;5092856;28;20035;-49
2022/06/25 10:13:04;;;;;;;2.92;1.63;;;26.00;91.80;;;;;;5092898;28;20027;-49
2022/06/25 10:15:30;;;;;;;4.45;1.70;;;26.30;91.80;;;;;;5092845;28;20032;-48
2022/06/25 10:17:56;;;;;;;3.78;2.03;;;26.20;91.80;;;;;;5093000;28;20031;-48
2022/06/25 10:20:23;;;;;;;2.70;1.75;;;26.20;91.90;;;;;;5092738;28;20028;-48
2022/06/25 10:22:51;;;;;;;5.30;1.83;;;26.20;69.40;;;;;;5092771;28;20067;-48
2022/06/25 10:25:25;;;;;;;3.78;2.08;;;26.40;61.90;;;;;;5092784;28;20024;-48
2022/06/25 10:28:02;;;;;;;5.25;1.50;;;26.30;67.70;;;;;;5092903;28;20024;-47
2022/06/25 10:30:44;;;;;;;4.32;1.70;;;26.80;92.10;;;;;;5092542;28;20036;-49
2022/06/25 10:33:11;;;;;;;6.45;1.65;;;26.50;91.80;;;;;;5092569;28;20030;-47
2022/06/25 10:35:39;;;;;;;3.58;1.70;;;26.30;76.20;;;;;;5092761;28;20042;-48
2022/06/25 10:38:08;;;;;;;2.03;1.27;;;26.30;79.30;;;;;;5092737;28;20020;-49
2022/06/25 10:40:52;;;;;;;2.90;1.40;;;26.30;86.80;;;;;;5092463;28;20049;-47
2022/06/25 10:43:54;;;;;;;3.67;1.50;;;26.80;92.00;;;;;;5092555;28;20020;-48
2022/06/25 10:46:30;;;;;;;3.72;1.80;;;26.60;61.80;;;;;;5092413;28;20039;-50
2022/06/25 10:49:04;;;;;;;3.70;1.27;;;26.70;92.20;;;;;;5092280;28;20044;-50
2022/06/25 10:51:49;;;;;;;1.67;1.30;;;26.80;92.30;;;;;;5092630;28;20012;-49
2022/06/25 10:54:15;;;;;;;2.45;1.42;;;;;;;;;;5092656;28;20017;-50
2022/06/25 10:56:46;;;;;;;2.17;1.23;;;26.70;61.60;;;;;;5092288;28;20406;-49
2022/06/25 10:59:32;;;;;;;1.33;1.17;;;26.90;92.20;;;;;;5092538;28;20036;-48
2022/06/25 11:01:58;;;;;;;2.65;1.38;;;26.70;92.20;;;;;;5091627;28;20095;-50
2022/06/25 11:04:27;;;;;;;1.88;1.20;;;26.70;92.80;;;;;;5092369;28;20016;-52
2022/06/25 11:06:53;;;;;;;2.58;1.30;;;26.90;92.40;;;;;;5092134;28;20027;-50
2022/06/25 11:09:19;;;;;;;1.90;0.82;;;26.90;92.40;;;;;;5091948;28;20127;-50
2022/06/25 11:11:48;;;;;;;1.92;1.20;;;26.70;89.30;;;;;;5092090;28;20024;-49
2022/06/25 11:14:20;;;;;;;3.17;1.42;;;26.70;92.80;;;;;;5092190;28;20036;-50
2022/06/25 11:16:46;;;;;;;2.13;1.08;;;26.30;92.70;;;;;;5092180;28;20047;-47
2022/06/25 11:19:12;;;;;;;2.42;1.08;;;26.60;92.90;;;;;;5092145;28;20051;-47
2022/06/25 11:21:40;;;;;;;4.05;1.50;;;26.90;93.10;;;;;;5092131;28;20027;-49
2022/06/25 11:24:11;;;;;;;1.75;0.95;;;26.90;93.30;;;;;;5091979;28;20028;-50
2022/06/25 11:29:37;;;;;;;1.15;0.80;;;26.80;93.60;;;;;;5092180;28;20135;-48
2022/06/25 11:32:03;;;;;;;2.25;1.10;;;26.60;93.20;;;;;;5091949;28;20020;-50
2022/06/25 11:34:29;;;;;;;1.40;1.10;;;26.80;65.60;;;;;;5091887;28;20032;-48
2022/06/25 11:36:55;;;;;;;1.50;1.17;;;26.90;72.70;;;;;;5092005;28;20032;-48
2022/06/25 11:39:22;;;;;;;0.90;0.90;;;;;;;;;;5091992;28;20029;-50
2022/06/25 11:41:51;;;;;;;1.83;1.15;;;26.90;93.60;;;;;;5091923;28;20115;-51
2022/06/25 11:44:17;;;;;;;4.82;1.05;;;26.80;93.90;;;;;;5092134;28;20509;-50
2022/06/25 11:46:44;;;;;;;2.63;1.20;;;26.50;93.40;;;;;;5074102;28;20160;-50
2022/06/25 11:49:11;;;;;;;2.25;1.00;;;26.70;65.70;;;;;;5092023;28;20428;-48
2022/06/25 11:51:44;;;;;;;2.47;1.30;;;26.90;93.70;;;;;;5092051;28;20020;-50
2022/06/25 11:54:10;;;;;;;1.75;1.02;;;26.60;93.80;;;;;;5091846;28;20028;-49
2022/06/25 11:56:35;;;;;;;1.52;0.80;;;26.50;93.60;;;;;;5094162;28;20046;-48
2022/06/25 11:59:01;;;;;;;1.45;1.05;;;27.00;93.30;;;;;;5095434;28;20084;-52
2022/06/25 12:01:29;;;;;;;1.77;1.05;;;26.50;69.60;;;;;;5095277;28;20471;-50
2022/06/25 12:03:55;;;;;;;3.13;1.40;;;26.60;93.60;;;;;;5095411;28;20529;-50
2022/06/25 12:06:22;;;;;;;1.30;1.02;;;27.00;93.80;;;;;;5095268;28;20052;-49
2022/06/25 12:08:48;;;;;;;1.20;0.80;;;26.80;93.60;;;;;;5094978;28;20499;-50
2022/06/25 12:11:13;;;;;;;1.52;1.13;;;26.60;93.50;;;;;;5077022;28;20165;-51
2022/06/25 12:13:39;;;;;;;1.27;1.17;;;26.50;80.80;;;;;;5095144;28;20024;-49
2022/06/25 12:16:05;;;;;;;1.55;1.10;;;26.30;89.30;;;;;;5095067;28;20032;-49
2022/06/25 12:18:40;;;;;;;2.22;1.00;;;26.80;93.10;;;;;;5095028;28;20028;-50
2022/06/25 12:21:07;;;;;;;1.00;0.82;;;26.80;93.90;;;;;;5095005;28;20016;-52
2022/06/25 12:23:58;;;;;;;1.50;1.08;;;26.70;66.00;;;;;;5094963;28;20016;-50
2022/06/25 12:26:32;;;;;;;1.98;0.90;;;26.90;93.80;;;;;;5094965;28;20032;-49
2022/06/25 12:29:15;;;;;;;1.42;0.85;;;26.70;93.70;;;;;;5095080;28;20432;-49
2022/06/25 12:31:58;;;;;;;0.85;0.80;;;26.90;93.70;;;;;;5094825;28;20662;-49
2022/06/25 12:34:26;;;;;;;1.83;0.93;;;26.50;93.60;;;;;;5094840;28;20024;-51
2022/06/25 12:36:52;;;;;;;0.98;0.85;;;26.90;93.70;;;;;;5094966;28;20020;-51
2022/06/25 12:39:43;;;;;;;2.15;1.20;;;26.30;69.50;;;;;;5094676;28;20377;-48
2022/06/25 12:42:12;;;;;;;1.98;0.90;;;26.80;85.20;;;;;;5094665;28;20027;-47
2022/06/25 12:44:41;;;;;;;1.25;0.90;;;26.50;93.50;;;;;;5094477;28;20489;-47
2022/06/25 12:47:09;;;;;;;0.80;0.73;;;26.80;66.30;;;;;;5094553;28;20394;-47
2022/06/25 12:49:41;;;;;;;2.55;0.90;;;26.80;66.00;;;;;;5094307;28;20040;-47
2022/06/25 12:52:07;;;;;;;1.27;0.95;;;26.90;78.10;;;;;;5094560;28;20467;-48
2022/06/25 12:54:50;;;;;;;1.17;0.90;;;26.70;65.90;;;;;;5094332;28;20031;-48
2022/06/25 12:57:29;;;;;;;1.70;1.00;;;26.80;94.00;;;;;;5094405;28;20032;-51
2022/06/25 12:59:56;;;;;;;0.95;0.50;;;26.60;89.80;;;;;;5094377;28;20150;-47
2022/06/25 13:02:23;;;;;;;2.40;0.80;;;26.90;93.60;;;;;;5094183;28;20024;-47
2022/06/25 13:04:49;;;;;;;1.30;1.00;;;26.30;93.50;;;;;;5094177;28;20075;-48
2022/06/25 13:07:16;;;;;;;1.45;0.80;;;27.10;80.20;;;;;;5093079;28;20103;-48
2022/06/25 13:09:44;;;;;;;1.02;0.70;;;26.80;93.60;;;;;;5093766;28;20059;-48
2022/06/25 13:12:10;;;;;;;1.33;0.98;;;26.90;93.70;;;;;;5094155;28;20028;-48
2022/06/25 13:14:37;;;;;;;0.52;0.50;;;26.90;93.60;;;;;;5093937;28;20395;-47
2022/06/25 13:17:04;;;;;;;2.10;0.65;;;26.80;66.30;;;;;;5093925;28;20162;-48
2022/06/25 13:19:30;;;;;;;1.88;0.70;;;27.00;93.70;;;;;;5093917;28;20029;-51
2022/06/25 13:21:57;;;;;;;0.60;0.60;;;26.60;93.50;;;;;;5093854;28;20032;-52
2022/06/25 13:24:24;;;;;;;0.80;0.60;;;26.20;93.50;;;;;;5093790;28;20057;-53
2022/06/25 13:26:49;;;;;;;0.80;0.77;;;26.70;93.60;;;;;;5093994;28;20387;-50
2022/06/25 13:29:15;;;;;;;1.17;0.85;;;26.80;93.60;;;;;;5093668;28;20031;-49
2022/06/25 13:31:41;;;;;;;0.85;0.68;;;;;;;;;;5093628;28;20028;-50